sensor_id;sensor_type;location;lat;lon;timestamp;temperature;humidity
53520;DHT22;39397;53.204;5.778;2023-03-09T00:00:22;2.40;99.90
53520;DHT22;39397;53.204;5.778;2023-03-09T00:02:48;2.30;99.90
53520;DHT22;39397;53.204;5.778;2023-03-09T00:05:21;2.30;99.90
53520;DHT22;39397;53.204;5.778;2023-03-09T00:07:54;2.30;99.90
53520;DHT22;39397;53.204;5.778;2023-03-09T00:10:21;4.20;99.90
53520;DHT22;39397;53.204;5.778;2023-03-09T00:12:50;4.10;99.90
53520;DHT22;39397;53.204;5.778;2023-03-09T00:15:17;2.20;99.90
53520;DHT22;39397;53.204;5.778;2023-03-09T00:17:44;2.20;99.90
53520;DHT22;39397;53.204;5.778;2023-03-09T00:20:13;4.40;99.90
53520;DHT22;39397;53.204;5.778;2023-03-09T00:22:50;4.00;99.90
53520;DHT22;39397;53.204;5.778;2023-03-09T00:25:16;3.30;99.90
53520;DHT22;39397;53.204;5.778;2023-03-09T00:27:51;2.00;99.90
53520;DHT22;39397;53.204;5.778;2023-03-09T00:30:26;3.30;99.90
53520;DHT22;39397;53.204;5.778;2023-03-09T00:32:53;2.10;99.90
53520;DHT22;39397;53.204;5.778;2023-03-09T00:35:24;4.00;99.90
53520;DHT22;39397;53.204;5.778;2023-03-09T00:37:50;2.10;99.90
53520;DHT22;39397;53.204;5.778;2023-03-09T00:40:16;2.10;99.90
53520;DHT22;39397;53.204;5.778;2023-03-09T00:42:43;2.00;99.90
53520;DHT22;39397;53.204;5.778;2023-03-09T00:45:14;3.80;99.90
53520;DHT22;39397;53.204;5.778;2023-03-09T00:47:40;1.90;99.90
53520;DHT22;39397;53.204;5.778;2023-03-09T00:50:08;1.80;99.90
53520;DHT22;39397;53.204;5.778;2023-03-09T00:52:35;1.70;99.90
53520;DHT22;39397;53.204;5.778;2023-03-09T00:55:00;1.70;99.90
53520;DHT22;39397;53.204;5.778;2023-03-09T00:57:26;1.80;99.90
53520;DHT22;39397;53.204;5.778;2023-03-09T00:59:53;2.30;99.90
53520;DHT22;39397;53.204;5.778;2023-03-09T01:02:23;2.80;99.90
53520;DHT22;39397;53.204;5.778;2023-03-09T01:04:52;3.40;99.90
53520;DHT22;39397;53.204;5.778;2023-03-09T01:07:19;3.30;99.90
53520;DHT22;39397;53.204;5.778;2023-03-09T01:09:44;3.90;99.90
53520;DHT22;39397;53.204;5.778;2023-03-09T01:12:10;2.30;99.90
53520;DHT22;39397;53.204;5.778;2023-03-09T01:14:37;4.30;99.90
53520;DHT22;39397;53.204;5.778;2023-03-09T01:17:03;1.50;99.90
53520;DHT22;39397;53.204;5.778;2023-03-09T01:19:30;1.40;99.90
53520;DHT22;39397;53.204;5.778;2023-03-09T01:21:57;1.50;99.90
53520;DHT22;39397;53.204;5.778;2023-03-09T01:24:24;3.20;99.90
53520;DHT22;39397;53.204;5.778;2023-03-09T01:27:01;3.20;99.90
53520;DHT22;39397;53.204;5.778;2023-03-09T01:29:26;2.70;99.90
53520;DHT22;39397;53.204;5.778;2023-03-09T01:31:52;3.00;99.90
53520;DHT22;39397;53.204;5.778;2023-03-09T01:34:24;2.90;99.90
53520;DHT22;39397;53.204;5.778;2023-03-09T01:36:50;2.00;99.90
53520;DHT22;39397;53.204;5.778;2023-03-09T01:39:21;2.20;99.90
53520;DHT22;39397;53.204;5.778;2023-03-09T01:41:46;1.10;99.90
53520;DHT22;39397;53.204;5.778;2023-03-09T01:44:14;2.80;99.90
53520;DHT22;39397;53.204;5.778;2023-03-09T01:46:56;2.50;99.90
53520;DHT22;39397;53.204;5.778;2023-03-09T01:49:45;1.10;99.90
53520;DHT22;39397;53.204;5.778;2023-03-09T01:52:22;3.10;99.90
53520;DHT22;39397;53.204;5.778;2023-03-09T01:55:09;0.80;99.90
53520;DHT22;39397;53.204;5.778;2023-03-09T01:58:02;3.00;99.90
53520;DHT22;39397;53.204;5.778;2023-03-09T02:00:35;0.80;99.90
53520;DHT22;39397;53.204;5.778;2023-03-09T02:03:11;0.40;99.90
53520;DHT22;39397;53.204;5.778;2023-03-09T02:05:55;1.00;99.90
53520;DHT22;39397;53.204;5.778;2023-03-09T02:08:24;0.80;99.90
53520;DHT22;39397;53.204;5.778;2023-03-09T02:10:55;0.90;99.90
53520;DHT22;39397;53.204;5.778;2023-03-09T02:13:30;0.80;99.90
53520;DHT22;39397;53.204;5.778;2023-03-09T02:15:58;1.00;99.90
53520;DHT22;39397;53.204;5.778;2023-03-09T02:18:24;0.90;99.90
53520;DHT22;39397;53.204;5.778;2023-03-09T02:29:35;2.20;99.90
53520;DHT22;39397;53.204;5.778;2023-03-09T02:32:01;2.90;99.90
53520;DHT22;39397;53.204;5.778;2023-03-09T02:34:26;2.50;99.90
53520;DHT22;39397;53.204;5.778;2023-03-09T02:36:55;3.00;99.90
53520;DHT22;39397;53.204;5.778;2023-03-09T02:39:40;-0.70;99.90
53520;DHT22;39397;53.204;5.778;2023-03-09T02:42:09;1.00;99.90
53520;DHT22;39397;53.204;5.778;2023-03-09T02:44:35;2.10;99.90
53520;DHT22;39397;53.204;5.778;2023-03-09T02:47:05;3.00;99.90
53520;DHT22;39397;53.204;5.778;2023-03-09T02:49:31;1.20;99.90
53520;DHT22;39397;53.204;5.778;2023-03-09T02:51:57;1.00;99.90
53520;DHT22;39397;53.204;5.778;2023-03-09T02:54:24;2.90;99.90
53520;DHT22;39397;53.204;5.778;2023-03-09T02:56:51;3.10;99.90
53520;DHT22;39397;53.204;5.778;2023-03-09T02:59:17;3.30;99.90
53520;DHT22;39397;53.204;5.778;2023-03-09T03:01:42;3.10;99.90
53520;DHT22;39397;53.204;5.778;2023-03-09T03:04:08;2.10;99.90
53520;DHT22;39397;53.204;5.778;2023-03-09T03:06:34;2.40;99.90
53520;DHT22;39397;53.204;5.778;2023-03-09T03:08:59;2.60;99.90
53520;DHT22;39397;53.204;5.778;2023-03-09T03:11:25;2.90;99.90
53520;DHT22;39397;53.204;5.778;2023-03-09T03:13:52;1.00;99.90
53520;DHT22;39397;53.204;5.778;2023-03-09T03:16:35;1.10;99.90
53520;DHT22;39397;53.204;5.778;2023-03-09T03:19:01;2.50;99.90
53520;DHT22;39397;53.204;5.778;2023-03-09T03:21:32;1.20;99.90
53520;DHT22;39397;53.204;5.778;2023-03-09T03:24:05;3.30;99.90
53520;DHT22;39397;53.204;5.778;2023-03-09T03:26:31;1.20;99.90
53520;DHT22;39397;53.204;5.778;2023-03-09T03:29:12;2.20;99.90
53520;DHT22;39397;53.204;5.778;2023-03-09T03:31:38;1.20;99.90
53520;DHT22;39397;53.204;5.778;2023-03-09T03:34:07;3.00;99.90
53520;DHT22;39397;53.204;5.778;2023-03-09T03:36:41;3.20;99.90
53520;DHT22;39397;53.204;5.778;2023-03-09T03:39:07;2.70;99.90
53520;DHT22;39397;53.204;5.778;2023-03-09T03:41:46;-0.40;99.90
53520;DHT22;39397;53.204;5.778;2023-03-09T03:44:21;1.90;99.90
53520;DHT22;39397;53.204;5.778;2023-03-09T03:46:57;1.10;99.90
53520;DHT22;39397;53.204;5.778;2023-03-09T03:49:23;1.70;99.90
53520;DHT22;39397;53.204;5.778;2023-03-09T03:51:55;1.00;99.90
53520;DHT22;39397;53.204;5.778;2023-03-09T03:54:31;2.90;99.90
53520;DHT22;39397;53.204;5.778;2023-03-09T03:57:04;1.20;99.90
53520;DHT22;39397;53.204;5.778;2023-03-09T03:59:31;1.10;99.90
53520;DHT22;39397;53.204;5.778;2023-03-09T04:02:13;1.10;99.90
53520;DHT22;39397;53.204;5.778;2023-03-09T04:04:45;2.60;99.90
53520;DHT22;39397;53.204;5.778;2023-03-09T04:07:12;0.80;99.90
53520;DHT22;39397;53.204;5.778;2023-03-09T04:09:44;1.70;99.90
53520;DHT22;39397;53.204;5.778;2023-03-09T04:12:10;0.80;99.90
53520;DHT22;39397;53.204;5.778;2023-03-09T04:14:41;2.40;99.90
53520;DHT22;39397;53.204;5.778;2023-03-09T04:17:11;1.20;99.90
53520;DHT22;39397;53.204;5.778;2023-03-09T04:19:51;3.20;99.90
53520;DHT22;39397;53.204;5.778;2023-03-09T04:22:18;1.90;99.90
53520;DHT22;39397;53.204;5.778;2023-03-09T04:24:48;0.70;99.90
53520;DHT22;39397;53.204;5.778;2023-03-09T04:27:28;0.90;99.90
53520;DHT22;39397;53.204;5.778;2023-03-09T04:29:56;0.90;99.90
53520;DHT22;39397;53.204;5.778;2023-03-09T04:32:22;1.10;99.90
53520;DHT22;39397;53.204;5.778;2023-03-09T04:35:12;2.60;99.90
53520;DHT22;39397;53.204;5.778;2023-03-09T04:37:58;1.80;99.90
53520;DHT22;39397;53.204;5.778;2023-03-09T04:40:39;1.60;99.90
53520;DHT22;39397;53.204;5.778;2023-03-09T04:43:25;2.90;99.90
53520;DHT22;39397;53.204;5.778;2023-03-09T04:46:15;0.80;99.90
53520;DHT22;39397;53.204;5.778;2023-03-09T04:48:41;0.80;99.90
53520;DHT22;39397;53.204;5.778;2023-03-09T04:51:08;1.30;99.90
53520;DHT22;39397;53.204;5.778;2023-03-09T04:53:35;1.20;99.90
53520;DHT22;39397;53.204;5.778;2023-03-09T04:56:01;2.90;99.90
53520;DHT22;39397;53.204;5.778;2023-03-09T04:58:26;2.70;99.90
53520;DHT22;39397;53.204;5.778;2023-03-09T05:00:52;2.80;99.90
53520;DHT22;39397;53.204;5.778;2023-03-09T05:03:18;1.40;99.90
53520;DHT22;39397;53.204;5.778;2023-03-09T05:05:44;0.90;99.90
53520;DHT22;39397;53.204;5.778;2023-03-09T05:08:09;2.50;99.90
53520;DHT22;39397;53.204;5.778;2023-03-09T05:10:35;1.20;99.90
53520;DHT22;39397;53.204;5.778;2023-03-09T05:13:01;2.60;99.90
53520;DHT22;39397;53.204;5.778;2023-03-09T05:15:27;3.10;99.90
53520;DHT22;39397;53.204;5.778;2023-03-09T05:17:52;2.90;99.90
53520;DHT22;39397;53.204;5.778;2023-03-09T05:20:18;2.70;99.90
53520;DHT22;39397;53.204;5.778;2023-03-09T05:22:45;0.90;99.90
53520;DHT22;39397;53.204;5.778;2023-03-09T05:25:11;3.10;99.90
53520;DHT22;39397;53.204;5.778;2023-03-09T05:27:36;2.70;99.90
53520;DHT22;39397;53.204;5.778;2023-03-09T05:30:03;1.00;99.90
53520;DHT22;39397;53.204;5.778;2023-03-09T05:32:30;1.00;99.90
53520;DHT22;39397;53.204;5.778;2023-03-09T05:34:56;2.60;99.90
53520;DHT22;39397;53.204;5.778;2023-03-09T05:37:22;1.80;99.90
53520;DHT22;39397;53.204;5.778;2023-03-09T05:39:49;0.90;99.90
53520;DHT22;39397;53.204;5.778;2023-03-09T05:42:16;0.90;99.90
53520;DHT22;39397;53.204;5.778;2023-03-09T05:44:41;1.00;99.90
53520;DHT22;39397;53.204;5.778;2023-03-09T05:47:07;2.30;99.90
53520;DHT22;39397;53.204;5.778;2023-03-09T05:49:33;3.00;99.90
53520;DHT22;39397;53.204;5.778;2023-03-09T05:51:59;0.90;99.90
53520;DHT22;39397;53.204;5.778;2023-03-09T05:54:26;1.00;99.90
53520;DHT22;39397;53.204;5.778;2023-03-09T05:56:55;1.90;99.90
53520;DHT22;39397;53.204;5.778;2023-03-09T05:59:21;2.10;99.90
53520;DHT22;39397;53.204;5.778;2023-03-09T06:01:47;2.40;99.90
53520;DHT22;39397;53.204;5.778;2023-03-09T06:04:12;2.00;99.90
53520;DHT22;39397;53.204;5.778;2023-03-09T06:06:38;2.70;99.90
53520;DHT22;39397;53.204;5.778;2023-03-09T06:09:09;0.80;99.90
53520;DHT22;39397;53.204;5.778;2023-03-09T06:11:37;1.00;99.90
53520;DHT22;39397;53.204;5.778;2023-03-09T06:14:03;1.70;99.90
53520;DHT22;39397;53.204;5.778;2023-03-09T06:16:28;2.10;99.90
53520;DHT22;39397;53.204;5.778;2023-03-09T06:18:55;0.80;99.90
53520;DHT22;39397;53.204;5.778;2023-03-09T06:21:21;0.50;99.90
53520;DHT22;39397;53.204;5.778;2023-03-09T06:23:47;1.00;99.90
53520;DHT22;39397;53.204;5.778;2023-03-09T06:26:13;0.50;99.90
53520;DHT22;39397;53.204;5.778;2023-03-09T06:28:39;0.80;99.90
53520;DHT22;39397;53.204;5.778;2023-03-09T06:31:10;1.50;99.90
53520;DHT22;39397;53.204;5.778;2023-03-09T06:33:38;1.40;99.90
53520;DHT22;39397;53.204;5.778;2023-03-09T06:36:04;0.10;99.90
53520;DHT22;39397;53.204;5.778;2023-03-09T06:38:30;0.40;99.90
53520;DHT22;39397;53.204;5.778;2023-03-09T06:40:56;0.80;99.90
53520;DHT22;39397;53.204;5.778;2023-03-09T06:43:22;1.30;99.90
53520;DHT22;39397;53.204;5.778;2023-03-09T06:45:48;1.50;99.90
53520;DHT22;39397;53.204;5.778;2023-03-09T06:48:14;1.10;99.90
53520;DHT22;39397;53.204;5.778;2023-03-09T06:50:40;1.10;99.90
53520;DHT22;39397;53.204;5.778;2023-03-09T06:53:06;0.70;99.90
53520;DHT22;39397;53.204;5.778;2023-03-09T06:55:32;1.90;99.90
53520;DHT22;39397;53.204;5.778;2023-03-09T06:57:59;2.60;99.90
53520;DHT22;39397;53.204;5.778;2023-03-09T07:00:24;0.80;99.90
53520;DHT22;39397;53.204;5.778;2023-03-09T07:02:50;0.50;99.90
53520;DHT22;39397;53.204;5.778;2023-03-09T07:05:16;2.50;99.90
53520;DHT22;39397;53.204;5.778;2023-03-09T07:07:43;2.90;99.90
53520;DHT22;39397;53.204;5.778;2023-03-09T07:10:10;2.00;99.90
53520;DHT22;39397;53.204;5.778;2023-03-09T07:12:36;2.60;99.90
53520;DHT22;39397;53.204;5.778;2023-03-09T07:15:03;0.90;99.90
53520;DHT22;39397;53.204;5.778;2023-03-09T07:17:29;0.90;99.90
53520;DHT22;39397;53.204;5.778;2023-03-09T07:19:55;1.00;99.90
53520;DHT22;39397;53.204;5.778;2023-03-09T07:22:22;1.40;99.90
53520;DHT22;39397;53.204;5.778;2023-03-09T07:24:48;2.80;99.90
53520;DHT22;39397;53.204;5.778;2023-03-09T07:27:14;2.70;99.90
53520;DHT22;39397;53.204;5.778;2023-03-09T07:29:40;2.80;99.90
53520;DHT22;39397;53.204;5.778;2023-03-09T07:32:07;1.50;99.90
53520;DHT22;39397;53.204;5.778;2023-03-09T07:34:34;2.00;99.90
53520;DHT22;39397;53.204;5.778;2023-03-09T07:37:00;1.50;99.90
53520;DHT22;39397;53.204;5.778;2023-03-09T07:39:26;1.70;99.90
53520;DHT22;39397;53.204;5.778;2023-03-09T07:41:57;3.50;99.90
53520;DHT22;39397;53.204;5.778;2023-03-09T07:44:23;1.90;99.90
53520;DHT22;39397;53.204;5.778;2023-03-09T07:46:49;2.20;99.90
53520;DHT22;39397;53.204;5.778;2023-03-09T07:49:15;4.00;99.90
53520;DHT22;39397;53.204;5.778;2023-03-09T07:51:41;2.70;99.90
53520;DHT22;39397;53.204;5.778;2023-03-09T07:54:07;3.50;99.90
53520;DHT22;39397;53.204;5.778;2023-03-09T07:56:33;3.80;99.90
53520;DHT22;39397;53.204;5.778;2023-03-09T07:58:59;4.30;99.90
53520;DHT22;39397;53.204;5.778;2023-03-09T08:01:25;3.70;99.90
53520;DHT22;39397;53.204;5.778;2023-03-09T08:03:53;3.90;99.90
53520;DHT22;39397;53.204;5.778;2023-03-09T08:06:19;2.80;99.90
53520;DHT22;39397;53.204;5.778;2023-03-09T08:08:45;4.30;99.90
53520;DHT22;39397;53.204;5.778;2023-03-09T08:11:12;2.80;99.90
53520;DHT22;39397;53.204;5.778;2023-03-09T08:13:50;4.60;99.90
53520;DHT22;39397;53.204;5.778;2023-03-09T08:16:16;3.90;99.90
53520;DHT22;39397;53.204;5.778;2023-03-09T08:18:42;4.60;99.90
53520;DHT22;39397;53.204;5.778;2023-03-09T08:21:10;2.90;99.90
53520;DHT22;39397;53.204;5.778;2023-03-09T08:23:38;3.70;99.90
53520;DHT22;39397;53.204;5.778;2023-03-09T08:26:08;4.50;99.90
53520;DHT22;39397;53.204;5.778;2023-03-09T08:28:37;3.70;99.90
53520;DHT22;39397;53.204;5.778;2023-03-09T08:31:03;4.40;99.90
53520;DHT22;39397;53.204;5.778;2023-03-09T08:33:30;3.00;99.90
53520;DHT22;39397;53.204;5.778;2023-03-09T08:35:56;3.00;99.90
53520;DHT22;39397;53.204;5.778;2023-03-09T08:38:22;4.50;99.90
53520;DHT22;39397;53.204;5.778;2023-03-09T08:40:48;5.20;99.90
53520;DHT22;39397;53.204;5.778;2023-03-09T08:43:14;3.00;99.90
53520;DHT22;39397;53.204;5.778;2023-03-09T08:45:40;3.10;99.90
53520;DHT22;39397;53.204;5.778;2023-03-09T08:48:06;4.70;99.90
53520;DHT22;39397;53.204;5.778;2023-03-09T08:50:32;4.40;99.90
53520;DHT22;39397;53.204;5.778;2023-03-09T08:52:57;3.30;99.90
53520;DHT22;39397;53.204;5.778;2023-03-09T08:55:23;3.70;99.90
53520;DHT22;39397;53.204;5.778;2023-03-09T08:57:49;5.00;99.90
53520;DHT22;39397;53.204;5.778;2023-03-09T09:00:17;3.50;99.90
53520;DHT22;39397;53.204;5.778;2023-03-09T09:02:43;3.60;99.90
53520;DHT22;39397;53.204;5.778;2023-03-09T09:05:09;3.80;99.90
53520;DHT22;39397;53.204;5.778;2023-03-09T09:07:35;3.70;99.90
53520;DHT22;39397;53.204;5.778;2023-03-09T09:10:02;5.70;99.90
53520;DHT22;39397;53.204;5.778;2023-03-09T09:12:28;3.80;99.90
53520;DHT22;39397;53.204;5.778;2023-03-09T09:14:57;3.90;99.90
53520;DHT22;39397;53.204;5.778;2023-03-09T09:17:24;5.90;99.90
53520;DHT22;39397;53.204;5.778;2023-03-09T09:19:49;4.10;99.90
53520;DHT22;39397;53.204;5.778;2023-03-09T09:22:17;5.90;99.90
53520;DHT22;39397;53.204;5.778;2023-03-09T09:24:43;5.20;99.90
53520;DHT22;39397;53.204;5.778;2023-03-09T09:27:09;4.20;99.90
53520;DHT22;39397;53.204;5.778;2023-03-09T09:29:36;4.20;99.90
53520;DHT22;39397;53.204;5.778;2023-03-09T09:32:03;5.70;99.90
53520;DHT22;39397;53.204;5.778;2023-03-09T09:34:30;4.30;99.90
53520;DHT22;39397;53.204;5.778;2023-03-09T09:37:05;4.40;99.90
53520;DHT22;39397;53.204;5.778;2023-03-09T09:39:32;4.50;99.90
53520;DHT22;39397;53.204;5.778;2023-03-09T09:42:10;5.30;99.90
53520;DHT22;39397;53.204;5.778;2023-03-09T09:44:41;4.40;99.90
53520;DHT22;39397;53.204;5.778;2023-03-09T09:47:16;4.40;99.90
53520;DHT22;39397;53.204;5.778;2023-03-09T09:49:48;4.50;99.90
53520;DHT22;39397;53.204;5.778;2023-03-09T09:55:12;4.70;99.90
53520;DHT22;39397;53.204;5.778;2023-03-09T09:57:44;3.60;99.90
53520;DHT22;39397;53.204;5.778;2023-03-09T10:00:19;4.80;99.90
53520;DHT22;39397;53.204;5.778;2023-03-09T10:05:27;4.80;99.90
53520;DHT22;39397;53.204;5.778;2023-03-09T10:07:56;3.40;99.90
53520;DHT22;39397;53.204;5.778;2023-03-09T10:10:29;6.20;99.90
53520;DHT22;39397;53.204;5.778;2023-03-09T10:13:11;4.90;99.90
53520;DHT22;39397;53.204;5.778;2023-03-09T10:15:38;5.20;99.90
53520;DHT22;39397;53.204;5.778;2023-03-09T10:18:15;6.10;99.90
53520;DHT22;39397;53.204;5.778;2023-03-09T10:20:49;6.60;99.90
53520;DHT22;39397;53.204;5.778;2023-03-09T10:23:35;5.90;99.90
53520;DHT22;39397;53.204;5.778;2023-03-09T10:26:34;5.90;99.90
53520;DHT22;39397;53.204;5.778;2023-03-09T10:29:05;5.90;99.90
53520;DHT22;39397;53.204;5.778;2023-03-09T10:31:55;5.90;99.90
53520;DHT22;39397;53.204;5.778;2023-03-09T10:34:26;5.90;99.90
53520;DHT22;39397;53.204;5.778;2023-03-09T10:37:09;6.10;99.90
53520;DHT22;39397;53.204;5.778;2023-03-09T10:39:43;6.20;99.90
53520;DHT22;39397;53.204;5.778;2023-03-09T10:42:23;6.40;99.90
53520;DHT22;39397;53.204;5.778;2023-03-09T10:47:57;6.30;99.90
53520;DHT22;39397;53.204;5.778;2023-03-09T10:50:31;6.20;99.90
53520;DHT22;39397;53.204;5.778;2023-03-09T10:53:20;6.10;99.90
53520;DHT22;39397;53.204;5.778;2023-03-09T10:55:47;6.10;99.90
53520;DHT22;39397;53.204;5.778;2023-03-09T10:58:23;7.00;99.90
53520;DHT22;39397;53.204;5.778;2023-03-09T11:03:36;6.10;99.90
53520;DHT22;39397;53.204;5.778;2023-03-09T11:11:47;6.10;99.90
53520;DHT22;39397;53.204;5.778;2023-03-09T11:14:27;6.40;99.90
53520;DHT22;39397;53.204;5.778;2023-03-09T11:16:56;6.40;99.90
53520;DHT22;39397;53.204;5.778;2023-03-09T11:19:23;6.80;99.90
53520;DHT22;39397;53.204;5.778;2023-03-09T11:21:58;6.80;99.90
53520;DHT22;39397;53.204;5.778;2023-03-09T11:24:30;7.50;99.90
53520;DHT22;39397;53.204;5.778;2023-03-09T11:27:24;6.70;99.90
53520;DHT22;39397;53.204;5.778;2023-03-09T11:29:55;6.80;99.90
53520;DHT22;39397;53.204;5.778;2023-03-09T11:32:22;6.70;99.90
53520;DHT22;39397;53.204;5.778;2023-03-09T11:34:49;6.60;99.90
53520;DHT22;39397;53.204;5.778;2023-03-09T11:37:58;8.10;99.90
53520;DHT22;39397;53.204;5.778;2023-03-09T11:40:27;6.90;99.90
53520;DHT22;39397;53.204;5.778;2023-03-09T11:45:41;7.20;99.90
53520;DHT22;39397;53.204;5.778;2023-03-09T11:53:23;7.70;99.90
53520;DHT22;39397;53.204;5.778;2023-03-09T11:55:53;7.60;99.90
53520;DHT22;39397;53.204;5.778;2023-03-09T11:58:25;7.40;99.90
53520;DHT22;39397;53.204;5.778;2023-03-09T12:00:58;7.60;99.90
53520;DHT22;39397;53.204;5.778;2023-03-09T12:03:27;8.40;99.90
53520;DHT22;39397;53.204;5.778;2023-03-09T12:06:01;7.70;99.90
53520;DHT22;39397;53.204;5.778;2023-03-09T12:08:31;7.50;99.90
53520;DHT22;39397;53.204;5.778;2023-03-09T12:11:15;7.60;99.90
53520;DHT22;39397;53.204;5.778;2023-03-09T12:13:58;7.60;99.90
53520;DHT22;39397;53.204;5.778;2023-03-09T12:16:28;7.70;99.90
53520;DHT22;39397;53.204;5.778;2023-03-09T12:22:30;5.90;99.90
53520;DHT22;39397;53.204;5.778;2023-03-09T12:24:59;7.60;99.90
53520;DHT22;39397;53.204;5.778;2023-03-09T12:27:28;8.10;99.90
53520;DHT22;39397;53.204;5.778;2023-03-09T12:34:54;7.40;99.90
53520;DHT22;39397;53.204;5.778;2023-03-09T12:40:19;7.60;99.90
53520;DHT22;39397;53.204;5.778;2023-03-09T12:42:50;7.30;99.90
53520;DHT22;39397;53.204;5.778;2023-03-09T12:47:51;7.40;99.90
53520;DHT22;39397;53.204;5.778;2023-03-09T13:06:36;7.10;99.90
53520;DHT22;39397;53.204;5.778;2023-03-09T13:09:35;7.00;99.90
53520;DHT22;39397;53.204;5.778;2023-03-09T13:12:15;7.00;99.90
53520;DHT22;39397;53.204;5.778;2023-03-09T13:20:34;7.00;99.90
53520;DHT22;39397;53.204;5.778;2023-03-09T13:23:13;7.20;99.90
53520;DHT22;39397;53.204;5.778;2023-03-09T13:25:51;6.90;99.90
53520;DHT22;39397;53.204;5.778;2023-03-09T13:28:22;6.80;99.90
53520;DHT22;39397;53.204;5.778;2023-03-09T13:30:50;7.40;99.90
53520;DHT22;39397;53.204;5.778;2023-03-09T13:33:30;6.90;99.90
53520;DHT22;39397;53.204;5.778;2023-03-09T13:36:06;6.60;99.90
53520;DHT22;39397;53.204;5.778;2023-03-09T13:38:35;6.70;99.90
53520;DHT22;39397;53.204;5.778;2023-03-09T13:41:04;6.70;99.90
53520;DHT22;39397;53.204;5.778;2023-03-09T13:43:36;6.30;99.90
53520;DHT22;39397;53.204;5.778;2023-03-09T13:46:19;6.60;99.90
53520;DHT22;39397;53.204;5.778;2023-03-09T13:48:49;6.50;99.90
53520;DHT22;39397;53.204;5.778;2023-03-09T13:51:44;6.50;99.90
53520;DHT22;39397;53.204;5.778;2023-03-09T14:02:31;6.50;99.90
53520;DHT22;39397;53.204;5.778;2023-03-09T14:07:25;8.00;99.90
53520;DHT22;39397;53.204;5.778;2023-03-09T14:10:00;6.40;99.90
53520;DHT22;39397;53.204;5.778;2023-03-09T14:12:35;8.10;99.90
53520;DHT22;39397;53.204;5.778;2023-03-09T14:15:05;7.30;99.90
53520;DHT22;39397;53.204;5.778;2023-03-09T14:17:33;6.60;99.90
53520;DHT22;39397;53.204;5.778;2023-03-09T14:20:06;7.10;99.90
53520;DHT22;39397;53.204;5.778;2023-03-09T14:22:38;6.50;99.90
53520;DHT22;39397;53.204;5.778;2023-03-09T14:27:48;6.50;99.90
53520;DHT22;39397;53.204;5.778;2023-03-09T14:33:03;7.00;99.90
53520;DHT22;39397;53.204;5.778;2023-03-09T14:35:32;8.20;99.90
53520;DHT22;39397;53.204;5.778;2023-03-09T14:37:58;7.40;99.90
53520;DHT22;39397;53.204;5.778;2023-03-09T14:40:32;8.30;99.90
53520;DHT22;39397;53.204;5.778;2023-03-09T14:43:33;6.20;99.90
53520;DHT22;39397;53.204;5.778;2023-03-09T14:46:21;6.40;99.90
53520;DHT22;39397;53.204;5.778;2023-03-09T14:48:50;6.00;99.90
53520;DHT22;39397;53.204;5.778;2023-03-09T14:51:32;7.90;99.90
53520;DHT22;39397;53.204;5.778;2023-03-09T14:56:32;6.10;99.90
53520;DHT22;39397;53.204;5.778;2023-03-09T14:59:01;6.00;99.90
53520;DHT22;39397;53.204;5.778;2023-03-09T15:01:29;7.70;99.90
53520;DHT22;39397;53.204;5.778;2023-03-09T15:03:55;7.50;99.90
53520;DHT22;39397;53.204;5.778;2023-03-09T15:06:23;5.60;99.90
53520;DHT22;39397;53.204;5.778;2023-03-09T15:08:49;7.10;99.90
53520;DHT22;39397;53.204;5.778;2023-03-09T15:11:15;5.40;99.90
53520;DHT22;39397;53.204;5.778;2023-03-09T15:13:41;5.50;99.90
53520;DHT22;39397;53.204;5.778;2023-03-09T15:16:09;5.10;99.90
53520;DHT22;39397;53.204;5.778;2023-03-09T15:18:35;5.40;99.90
53520;DHT22;39397;53.204;5.778;2023-03-09T15:21:00;5.30;99.90
53520;DHT22;39397;53.204;5.778;2023-03-09T15:23:26;5.30;99.90
53520;DHT22;39397;53.204;5.778;2023-03-09T15:25:52;6.00;99.90
53520;DHT22;39397;53.204;5.778;2023-03-09T15:28:18;6.60;99.90
53520;DHT22;39397;53.204;5.778;2023-03-09T15:30:45;5.00;99.90
53520;DHT22;39397;53.204;5.778;2023-03-09T15:33:11;6.70;99.90
53520;DHT22;39397;53.204;5.778;2023-03-09T15:35:40;5.00;99.90
53520;DHT22;39397;53.204;5.778;2023-03-09T15:38:07;6.10;99.90
53520;DHT22;39397;53.204;5.778;2023-03-09T15:40:32;4.60;99.90
53520;DHT22;39397;53.204;5.778;2023-03-09T15:42:58;4.80;99.90
53520;DHT22;39397;53.204;5.778;2023-03-09T15:45:26;5.40;99.90
53520;DHT22;39397;53.204;5.778;2023-03-09T15:47:53;5.70;99.90
53520;DHT22;39397;53.204;5.778;2023-03-09T15:50:19;5.60;99.90
53520;DHT22;39397;53.204;5.778;2023-03-09T15:52:45;5.80;99.90
53520;DHT22;39397;53.204;5.778;2023-03-09T15:55:11;4.40;99.90
53520;DHT22;39397;53.204;5.778;2023-03-09T15:57:38;4.70;99.90
53520;DHT22;39397;53.204;5.778;2023-03-09T16:00:05;5.20;99.90
53520;DHT22;39397;53.204;5.778;2023-03-09T16:02:31;4.20;99.90
53520;DHT22;39397;53.204;5.778;2023-03-09T16:04:57;6.00;99.90
53520;DHT22;39397;53.204;5.778;2023-03-09T16:07:23;4.30;99.90
53520;DHT22;39397;53.204;5.778;2023-03-09T16:09:49;4.10;99.90
53520;DHT22;39397;53.204;5.778;2023-03-09T16:12:15;4.20;99.90
53520;DHT22;39397;53.204;5.778;2023-03-09T16:14:40;4.10;99.90
53520;DHT22;39397;53.204;5.778;2023-03-09T16:17:06;4.40;99.90
53520;DHT22;39397;53.204;5.778;2023-03-09T16:19:33;4.90;99.90
53520;DHT22;39397;53.204;5.778;2023-03-09T16:21:58;4.00;99.90
53520;DHT22;39397;53.204;5.778;2023-03-09T16:24:24;5.20;99.90
53520;DHT22;39397;53.204;5.778;2023-03-09T16:26:50;3.90;99.90
53520;DHT22;39397;53.204;5.778;2023-03-09T16:29:16;4.00;99.90
53520;DHT22;39397;53.204;5.778;2023-03-09T16:31:47;3.90;99.90
53520;DHT22;39397;53.204;5.778;2023-03-09T16:34:14;4.70;99.90
53520;DHT22;39397;53.204;5.778;2023-03-09T16:36:40;3.80;99.90
53520;DHT22;39397;53.204;5.778;2023-03-09T16:39:05;4.80;99.90
53520;DHT22;39397;53.204;5.778;2023-03-09T16:41:31;3.80;99.90
53520;DHT22;39397;53.204;5.778;2023-03-09T16:43:57;3.80;99.90
53520;DHT22;39397;53.204;5.778;2023-03-09T16:46:25;5.90;99.90
53520;DHT22;39397;53.204;5.778;2023-03-09T16:48:51;5.30;99.90
53520;DHT22;39397;53.204;5.778;2023-03-09T16:51:19;5.70;99.90
53520;DHT22;39397;53.204;5.778;2023-03-09T16:53:45;5.00;99.90
53520;DHT22;39397;53.204;5.778;2023-03-09T16:56:11;3.50;99.90
53520;DHT22;39397;53.204;5.778;2023-03-09T16:58:38;4.20;99.90
53520;DHT22;39397;53.204;5.778;2023-03-09T17:01:13;4.20;99.90
53520;DHT22;39397;53.204;5.778;2023-03-09T17:03:39;3.50;99.90
53520;DHT22;39397;53.204;5.778;2023-03-09T17:06:10;3.60;99.90
53520;DHT22;39397;53.204;5.778;2023-03-09T17:08:35;3.40;99.90
53520;DHT22;39397;53.204;5.778;2023-03-09T17:11:01;3.40;99.90
53520;DHT22;39397;53.204;5.778;2023-03-09T17:13:27;4.30;99.90
53520;DHT22;39397;53.204;5.778;2023-03-09T17:15:57;5.40;99.90
53520;DHT22;39397;53.204;5.778;2023-03-09T17:18:23;3.10;99.90
53520;DHT22;39397;53.204;5.778;2023-03-09T17:20:50;4.80;99.90
53520;DHT22;39397;53.204;5.778;2023-03-09T17:23:17;3.20;99.90
53520;DHT22;39397;53.204;5.778;2023-03-09T17:25:43;3.20;99.90
53520;DHT22;39397;53.204;5.778;2023-03-09T17:28:09;3.20;99.90